Time;durP1;ratioP1;P1;durP2;ratioP2;P2;SDS_P1;SDS_P2;PMS_P1;PMS_P2;Temp;Humidity;BMP_temperature;BMP_pressure;BME280_temperature;BME280_humidity;BME280_pressure;Samples;Min_cycle;Max_cycle;Signal;HPM_P1;HPM_P2
2021/07/08 00:00:25;;;;;;;16.45;14.85;;;;;;;21.84;87.68;97259.50;5006841;28;20149;-64
2021/07/08 00:02:51;;;;;;;19.05;14.55;;;;;;;21.75;88.19;97256.47;5005383;28;20123;-64
2021/07/08 00:05:20;;;;;;;17.77;15.90;;;;;;;21.76;88.30;97255.25;5005109;28;20504;-64
2021/07/08 00:07:45;;;;;;;15.80;14.10;;;;;;;21.79;87.79;97247.94;5005077;28;20030;-64
2021/07/08 00:10:20;;;;;;;18.48;14.55;;;;;;;21.74;88.04;97251.25;5021527;28;20037;-64
2021/07/08 00:12:46;;;;;;;16.15;14.02;;;;;;;21.73;88.93;97246.84;5005072;28;20033;-64
2021/07/08 00:15:14;;;;;;;16.80;14.80;;;;;;;21.77;87.86;97254.03;5006673;28;20037;-64
2021/07/08 00:17:41;;;;;;;16.15;14.48;;;;;;;21.71;88.05;97269.06;5004671;28;20033;-65
2021/07/08 00:20:09;;;;;;;19.55;14.82;;;;;;;21.48;87.84;97224.84;5005121;28;20060;-64
2021/07/08 00:22:35;;;;;;;15.80;13.55;;;;;;;21.78;87.62;97255.59;5006572;28;20026;-66
2021/07/08 00:25:02;;;;;;;17.48;14.45;;;;;;;21.79;87.47;97257.22;5021096;28;20536;-65
2021/07/08 00:27:28;;;;;;;15.75;14.15;;;;;;;21.26;87.62;97169.44;5006056;28;20052;-64
2021/07/08 00:29:53;;;;;;;16.08;14.48;;;;;;;21.91;86.96;97258.53;5004257;28;20556;-64
2021/07/08 00:32:19;;;;;;;17.67;14.75;;;;;;;21.95;86.63;97264.88;5006277;28;20036;-65
2021/07/08 00:34:44;;;;;;;17.90;15.75;;;;;;;21.88;87.03;97259.41;5004455;28;20053;-65
2021/07/08 00:37:09;;;;;;;16.17;14.68;;;;;;;21.75;88.06;97269.78;5020807;28;20030;-64
2021/07/08 00:39:35;;;;;;;17.00;15.30;;;;;;;21.88;87.17;97263.03;5021050;28;20050;-64
2021/07/08 00:42:00;;;;;;;16.45;14.80;;;;;;;21.31;86.70;97186.59;5004232;28;20029;-65
2021/07/08 00:44:26;;;;;;;16.10;14.27;;;;;;;21.60;85.91;97201.63;5005942;28;20483;-65
2021/07/08 00:46:51;;;;;;;18.55;16.58;;;;;;;22.09;85.96;97270.97;5003920;28;20046;-66
2021/07/08 00:49:17;;;;;;;15.27;13.68;;;;;;;22.12;85.48;97270.09;5005729;28;20125;-65
2021/07/08 00:51:42;;;;;;;16.85;15.15;;;;;;;22.17;85.24;97272.41;5004093;28;20037;-65
2021/07/08 00:54:10;;;;;;;15.00;13.60;;;;;;;22.14;85.70;97273.28;5003584;28;20041;-65
2021/07/08 00:56:36;;;;;;;15.68;14.15;;;;;;;22.23;85.06;97270.63;5003543;28;20529;-65
2021/07/08 00:59:07;;;;;;;16.58;14.82;;;;;;;22.02;85.48;97234.47;5004209;28;20535;-65
2021/07/08 01:01:34;;;;;;;15.88;14.27;;;;;;;21.92;85.11;97210.16;5004364;28;20026;-64
2021/07/08 01:04:02;;;;;;;15.98;14.45;;;;;;;22.22;85.26;97252.09;5005248;28;20041;-65
2021/07/08 01:06:29;;;;;;;16.08;14.43;;;;;;;22.33;85.02;97272.41;5005513;28;20097;-66
2021/07/08 01:08:55;;;;;;;16.17;14.65;;;;;;;22.40;84.26;97269.38;5003821;28;20878;-64
2021/07/08 01:11:22;;;;;;;18.55;14.82;;;;;;;22.44;83.96;97270.09;5003738;28;20030;-65
2021/07/08 01:13:48;;;;;;;15.98;14.35;;;;;;;22.36;84.38;97256.59;5005202;28;20038;-64
2021/07/08 01:16:14;;;;;;;14.95;13.45;;;;;;;22.36;84.57;97265.06;5005503;28;20041;-65
2021/07/08 01:18:40;;;;;;;15.23;13.80;;;;;;;22.34;84.54;97265.50;5003283;28;20045;-65
2021/07/08 01:21:27;;;;;;;15.30;13.80;;;;;;;22.30;85.04;97259.13;5005212;28;20132;-66
2021/07/08 01:23:54;;;;;;;15.30;13.73;;;;;;;21.96;85.26;97224.94;5005149;28;20050;-65
2021/07/08 01:26:20;;;;;;;14.65;13.27;;;;;;;22.16;85.29;97258.72;5003278;28;20037;-65
2021/07/08 01:28:46;;;;;;;15.60;14.15;;;;;;;22.19;85.61;97269.91;5005040;28;20416;-65
2021/07/08 01:31:12;;;;;;;14.77;13.38;;;;;;;22.18;85.69;97270.34;5003074;28;20034;-65
2021/07/08 01:33:38;;;;;;;16.08;13.90;;;;;;;21.67;86.27;97192.97;5003533;28;20108;-65
2021/07/08 01:36:03;;;;;;;15.07;13.45;;;;;;;22.19;86.25;97266.31;5005093;28;20416;-65
2021/07/08 01:38:29;;;;;;;15.43;13.85;;;;;;;22.00;85.85;97228.47;5003414;28;20505;-65
2021/07/08 01:40:54;;;;;;;15.60;14.10;;;;;;;22.16;86.38;97256.69;5004748;28;20049;-65
2021/07/08 01:43:20;;;;;;;15.65;13.98;;;;;;;22.19;86.22;97260.66;5003025;28;20479;-65
2021/07/08 01:45:45;;;;;;;15.40;13.80;;;;;;;22.22;85.94;97257.72;5003164;28;20061;-65
2021/07/08 01:48:11;;;;;;;14.80;13.50;;;;;;;22.22;86.01;97274.66;5004710;28;20034;-66
2021/07/08 01:50:37;;;;;;;16.02;14.50;;;;;;;22.02;87.29;97268.31;5003479;28;20053;-66
2021/07/08 01:53:03;;;;;;;16.92;15.13;;;;;;;22.03;88.38;97267.09;5003146;28;20428;-66
2021/07/08 01:55:28;;;;;;;18.42;16.55;;;;;;;22.13;87.41;97282.19;5004829;28;20034;-66
2021/07/08 01:57:56;;;;;;;17.25;15.52;;;;;;;22.10;87.58;97266.91;5003116;28;20040;-66
2021/07/08 02:00:24;;;;;;;21.00;15.40;;;;;;;21.83;87.31;97212.78;5002646;28;20033;-66
2021/07/08 02:02:54;;;;;;;16.80;15.20;;;;;;;22.29;86.88;97268.84;5004805;28;20050;-65
2021/07/08 02:05:21;;;;;;;20.35;16.33;;;;;;;22.28;86.77;97267.28;5004424;28;20038;-65
2021/07/08 02:07:46;;;;;;;20.67;15.63;;;;;;;22.37;86.11;97255.34;5004675;28;20572;-65
2021/07/08 02:10:14;;;;;;;17.45;15.63;;;;;;;22.48;84.94;97270.78;5004300;28;20049;-65
2021/07/08 02:12:41;;;;;;;21.23;16.33;;;;;;;22.41;84.53;97254.00;5004155;28;20056;-65
2021/07/08 02:15:08;;;;;;;16.00;14.30;;;;;;;22.52;84.96;97267.09;5002629;28;20111;-65
2021/07/08 02:17:34;;;;;;;17.55;15.60;;;;;;;22.51;85.12;97263.44;5002474;28;20041;-65
2021/07/08 02:20:00;;;;;;;18.00;14.98;;;;;;;22.49;84.89;97272.34;5003926;28;20057;-66
2021/07/08 02:22:26;;;;;;;18.05;15.52;;;;;;;22.48;85.08;97270.78;5004048;28;20053;-66
2021/07/08 02:24:51;;;;;;;18.65;15.43;;;;;;;22.55;85.70;97271.84;5004129;28;20175;-65
2021/07/08 02:27:17;;;;;;;18.40;16.42;;;;;;;22.64;84.47;97283.31;5003697;28;20099;-65
2021/07/08 02:29:42;;;;;;;18.60;16.52;;;;;;;22.22;87.18;97280.31;5004014;28;20051;-65
2021/07/08 02:32:09;;;;;;;17.67;15.85;;;;;;;22.17;86.16;97238.53;5004081;28;20124;-65
2021/07/08 02:34:36;;;;;;;17.85;16.05;;;;;;;22.45;86.13;97277.31;5002515;28;20488;-67
2021/07/08 02:37:04;;;;;;;17.73;15.57;;;;;;;22.56;85.16;97265.00;5002133;28;20033;-67
2021/07/08 02:39:30;;;;;;;17.77;15.75;;;;;;;22.50;85.07;97261.88;5002421;28;20037;-64
2021/07/08 02:41:55;;;;;;;19.60;15.25;;;;;;;22.50;85.22;97273.16;5003822;28;20041;-65
2021/07/08 02:44:20;;;;;;;18.75;14.95;;;;;;;22.64;84.80;97272.00;5018013;28;20153;-66
2021/07/08 02:46:46;;;;;;;18.05;15.45;;;;;;;22.56;84.68;97271.41;5002261;28;20081;-66
2021/07/08 02:49:11;;;;;;;16.50;14.95;;;;;;;22.42;85.58;97272.56;5003793;28;20073;-66
2021/07/08 02:51:37;;;;;;;19.52;15.00;;;;;;;22.44;85.60;97278.56;5003582;28;20026;-66
2021/07/08 02:54:02;;;;;;;15.45;14.05;;;;;;;22.35;86.55;97286.84;5002168;28;20512;-65
2021/07/08 02:56:28;;;;;;;16.05;14.63;;;;;;;22.34;86.39;97282.44;5003568;28;20038;-65
2021/07/08 02:58:53;;;;;;;15.88;14.27;;;;;;;22.36;86.45;97285.63;5003812;28;20037;-65
2021/07/08 03:01:18;;;;;;;16.40;14.70;;;;;;;22.32;86.73;97289.75;5003454;28;20509;-64
2021/07/08 03:03:44;;;;;;;17.60;14.82;;;;;;;22.42;86.03;97289.50;5002389;28;20571;-65
2021/07/08 03:06:09;;;;;;;16.25;14.32;;;;;;;22.39;86.18;97287.56;5002382;28;20032;-65
2021/07/08 03:08:35;;;;;;;17.95;15.10;;;;;;;22.54;85.39;97290.03;5002172;28;20249;-65
2021/07/08 03:11:01;;;;;;;15.00;13.70;;;;;;;22.65;84.61;97297.00;5003786;28;20418;-65
2021/07/08 03:13:27;;;;;;;16.10;14.52;;;;;;;22.27;84.66;97220.50;5002066;28;20133;-65
2021/07/08 03:15:52;;;;;;;16.55;14.75;;;;;;;22.41;85.07;97248.38;5003222;28;20109;-65
2021/07/08 03:18:17;;;;;;;15.13;13.63;;;;;;;22.42;84.73;97249.97;5001606;28;20116;-65
2021/07/08 03:20:45;;;;;;;14.73;13.07;;;;;;;22.84;83.56;97292.47;5001932;28;20042;-64
2021/07/08 03:23:11;;;;;;;14.80;13.40;;;;;;;22.85;83.82;97288.38;5002379;28;20033;-65
2021/07/08 03:25:37;;;;;;;14.55;12.95;;;;;;;22.94;83.47;97288.53;5003841;28;20046;-65
2021/07/08 03:28:03;;;;;;;15.10;13.65;;;;;;;22.98;83.54;97297.72;5003442;28;20096;-66
2021/07/08 03:30:30;;;;;;;14.90;13.43;;;;;;;22.86;81.72;97236.31;5001876;28;20081;-65
2021/07/08 03:32:57;;;;;;;15.68;14.05;;;;;;;23.35;81.41;97289.41;5003126;28;20034;-64
2021/07/08 03:35:25;;;;;;;16.38;13.43;;;;;;;23.50;80.80;97284.13;5001976;28;20046;-65
2021/07/08 03:37:51;;;;;;;14.77;12.80;;;;;;;23.51;80.61;97269.53;5003479;28;20111;-65
2021/07/08 03:40:18;;;;;;;14.50;13.10;;;;;;;23.63;80.10;97276.44;5003742;28;20038;-66
2021/07/08 03:42:44;;;;;;;14.70;12.88;;;;;;;23.72;79.63;97279.41;5001738;28;20029;-65
2021/07/08 03:45:11;;;;;;;14.50;13.20;;;;;;;23.84;78.95;97281.44;5001718;28;20324;-65
2021/07/08 03:47:37;;;;;;;13.63;12.40;;;;;;;24.05;77.62;97280.78;5003036;28;20041;-65
2021/07/08 03:50:05;;;;;;;14.93;13.60;;;;;;;23.79;77.70;97229.03;5001616;28;20176;-65
2021/07/08 03:52:30;;;;;;;13.25;12.00;;;;;;;22.72;76.63;97053.09;5001254;28;20167;-67
2021/07/08 03:54:56;;;;;;;14.18;12.68;;;;;;;24.13;75.96;97248.19;5002363;28;20045;-65
2021/07/08 03:57:22;;;;;;;14.38;12.98;;;;;;;24.30;75.71;97263.78;5006751;28;20049;-65
2021/07/08 03:59:47;;;;;;;14.70;12.85;;;;;;;24.64;75.39;97289.34;5005071;28;20030;-65
2021/07/08 04:02:13;;;;;;;14.25;12.75;;;;;;;24.62;74.35;97263.50;5005188;28;20436;-67
2021/07/08 04:04:38;;;;;;;14.27;12.98;;;;;;;24.90;73.55;97296.53;5006471;28;20103;-65
2021/07/08 04:07:05;;;;;;;16.98;14.93;;;;;;;25.01;74.10;97291.25;5004586;28;20030;-64
2021/07/08 04:09:31;;;;;;;15.68;14.38;;;;;;;24.88;74.71;97255.72;5006126;28;20048;-66
2021/07/08 04:11:56;;;;;;;16.92;15.32;;;;;;;25.16;73.99;97298.03;5005088;28;20558;-65
2021/07/08 04:14:22;;;;;;;16.10;14.55;;;;;;;24.65;76.38;97302.25;5004972;28;20096;-66
2021/07/08 04:16:47;;;;;;;20.55;17.00;;;;;;;24.47;77.83;97299.19;5006453;28;20045;-65
2021/07/08 04:19:13;;;;;;;16.15;14.65;;;;;;;24.84;76.01;97312.53;5020873;28;20448;-66
2021/07/08 04:21:38;;;;;;;18.35;16.45;;;;;;;24.36;76.25;97230.78;5006719;28;20456;-65
2021/07/08 04:24:04;;;;;;;17.65;15.85;;;;;;;24.69;75.67;97268.91;5006032;28;20509;-67
2021/07/08 04:26:29;;;;;;;18.08;16.38;;;;;;;24.22;75.44;97217.13;5006270;28;20456;-66
2021/07/08 04:28:55;;;;;;;17.17;15.55;;;;;;;24.73;75.54;97309.28;5004459;28;20060;-65
2021/07/08 04:31:20;;;;;;;18.73;16.33;;;;;;;24.54;74.55;97267.00;5004222;28;20516;-67
2021/07/08 04:33:46;;;;;;;18.67;15.05;;;;;;;24.88;73.93;97276.34;5004390;28;20076;-64
2021/07/08 04:36:12;;;;;;;16.27;14.77;;;;;;;25.35;72.71;97303.84;5004164;28;20030;-65
2021/07/08 04:38:41;;;;;;;16.70;15.05;;;;;;;25.08;71.27;97250.53;5003957;28;20508;-64
2021/07/08 04:41:07;;;;;;;18.35;16.23;;;;;;;25.60;71.12;97313.00;5004261;28;20119;-65
2021/07/08 04:43:33;;;;;;;16.67;15.07;;;;;;;25.83;70.48;97314.56;5004004;28;20057;-65
2021/07/08 04:45:58;;;;;;;17.17;15.20;;;;;;;25.65;69.41;97271.88;5010117;28;20029;-65
2021/07/08 04:48:24;;;;;;;18.63;15.90;;;;;;;26.09;69.56;97325.31;5023678;28;20071;-65
2021/07/08 04:50:49;;;;;;;16.48;14.73;;;;;;;25.87;69.17;97261.28;5025444;28;20499;-66
2021/07/08 04:53:16;;;;;;;16.80;14.65;;;;;;;26.34;69.43;97312.94;5025153;28;20083;-70
2021/07/08 04:55:42;;;;;;;15.95;14.25;;;;;;;25.84;68.01;97219.63;5023783;28;20332;-66
2021/07/08 04:58:07;;;;;;;19.15;15.27;;;;;;;26.42;67.09;97294.34;5024069;28;20033;-66
2021/07/08 05:00:32;;;;;;;15.60;13.25;;;;;;;26.70;65.44;97304.53;5025037;28;20064;-65
2021/07/08 05:02:58;;;;;;;13.90;12.27;;;;;;;26.56;64.12;97240.53;5025682;28;20025;-66
2021/07/08 05:05:24;;;;;;;14.13;12.65;;;;;;;27.39;63.01;97324.69;5025233;28;20137;-65
2021/07/08 05:07:51;;;;;;;15.45;12.18;;;;;;;27.80;61.96;97332.56;5022463;28;20025;-67
2021/07/08 05:10:17;;;;;;;13.45;12.27;;;;;;;27.95;60.14;97305.81;5023475;28;20095;-65
2021/07/08 05:12:43;;;;;;;13.18;12.10;;;;;;;28.15;60.00;97326.00;5023227;28;20137;-66
2021/07/08 05:15:12;;;;;;;13.40;12.15;;;;;;;28.15;59.18;97297.50;5023405;28;20459;-65
2021/07/08 05:17:38;;;;;;;13.45;12.27;;;;;;;28.30;59.59;97325.28;5023423;28;20061;-65
2021/07/08 05:20:07;;;;;;;13.07;11.77;;;;;;;28.26;58.49;97324.69;5022795;28;20089;-64
2021/07/08 05:22:34;;;;;;;13.43;12.05;;;;;;;28.20;59.48;97332.31;5023076;28;20183;-66
2021/07/08 05:25:00;;;;;;;14.85;11.43;;;;;;;28.10;58.63;97323.81;5024421;28;20508;-66
2021/07/08 05:27:25;;;;;;;12.82;11.82;;;;;;;28.13;59.89;97334.25;5024633;28;20062;-64
2021/07/08 05:29:51;;;;;;;12.52;11.25;;;;;;;28.25;58.99;97323.13;5023303;28;20041;-65
2021/07/08 05:32:18;;;;;;;11.82;10.75;;;;;;;27.90;58.87;97292.22;5024947;28;20030;-64
2021/07/08 05:34:44;;;;;;;10.50;9.60;;;;;;;28.01;57.63;97343.75;5024391;28;20068;-65
2021/07/08 05:37:10;;;;;;;11.32;10.20;;;;;;;27.59;61.04;97334.31;5023207;28;20139;-64
2021/07/08 05:39:36;;;;;;;11.70;10.65;;;;;;;27.51;60.02;97332.28;5022938;28;20121;-65
2021/07/08 05:42:02;;;;;;;10.82;9.93;;;;;;;27.51;60.05;97347.31;5023023;28;20052;-64
2021/07/08 05:44:27;;;;;;;10.27;9.23;;;;;;;27.61;58.53;97343.19;5024369;28;20840;-64
2021/07/08 05:46:53;;;;;;;10.57;9.65;;;;;;;27.41;60.42;97348.56;5019509;28;20077;-64
2021/07/08 05:49:19;;;;;;;11.85;9.93;;;;;;;27.71;59.44;97347.59;5003141;28;20034;-66
2021/07/08 05:51:44;;;;;;;15.48;9.90;;;;;;;27.78;59.55;97352.16;5002936;28;20072;-64
2021/07/08 05:54:10;;;;;;;10.68;9.88;;;;;;;28.07;58.67;97347.53;5018259;28;20052;-60
2021/07/08 05:56:35;;;;;;;9.85;9.00;;;;;;;27.60;59.32;97352.97;5002657;28;20125;-60
2021/07/08 05:59:01;;;;;;;12.77;10.07;;;;;;;27.42;58.87;97272.53;5014231;28;20461;-56
2021/07/08 06:01:26;;;;;;;10.38;9.57;;;;;;;28.11;57.46;97359.56;5022204;28;20886;-60
2021/07/08 06:03:52;;;;;;;12.02;10.90;;;;;;;28.21;58.03;97345.28;5022159;28;20044;-65
2021/07/08 06:06:18;;;;;;;10.63;9.73;;;;;;;28.24;57.32;97339.44;5023815;28;20033;-59
2021/07/08 06:08:45;;;;;;;10.23;8.93;;;;;;;27.84;58.08;97362.44;5022263;28;20037;-57
2021/07/08 06:11:10;;;;;;;9.90;9.02;;;;;;;27.60;58.66;97364.38;5014477;28;20044;-58
2021/07/08 06:13:36;;;;;;;10.73;8.93;;;;;;;27.71;58.59;97358.97;5002874;28;20030;-64
2021/07/08 06:16:03;;;;;;;11.68;9.50;;;;;;;28.28;57.07;97362.81;5003987;28;20285;-64
2021/07/08 06:18:29;;;;;;;9.63;8.82;;;;;;;28.42;57.72;97361.38;5002540;28;20033;-68
2021/07/08 06:20:54;;;;;;;9.73;8.88;;;;;;;28.53;54.50;97361.66;5004007;28;20590;-64
2021/07/08 06:23:21;;;;;;;10.27;8.82;;;;;;;28.76;54.47;97363.75;5002563;28;20022;-65
2021/07/08 06:25:47;;;;;;;9.82;9.05;;;;;;;28.98;52.82;97347.16;5002679;28;20076;-61
2021/07/08 06:28:14;;;;;;;9.23;8.52;;;;;;;29.51;50.98;97362.34;5003789;28;20480;-62
2021/07/08 06:30:39;;;;;;;9.60;8.93;;;;;;;29.64;51.30;97365.72;5003936;28;20046;-62
2021/07/08 06:33:04;;;;;;;10.40;8.63;;;;;;;29.55;50.68;97323.75;5003776;28;20032;-60
2021/07/08 06:35:30;;;;;;;10.23;8.90;;;;;;;30.10;50.43;97366.88;5004463;28;20045;-59
2021/07/08 06:37:55;;;;;;;9.85;8.95;;;;;;;29.45;50.44;97364.28;5004217;28;20049;-61
2021/07/08 06:40:21;;;;;;;10.23;8.80;;;;;;;29.79;50.00;97372.28;5003832;28;20266;-59
2021/07/08 06:42:46;;;;;;;9.65;8.77;;;;;;;29.65;48.92;97347.34;5003624;28;20045;-61
2021/07/08 06:45:15;;;;;;;9.40;8.48;;;;;;;30.40;48.01;97353.38;5003742;28;20469;-57
2021/07/08 06:47:45;;;;;;;7.78;7.28;;;;;;;29.68;47.17;97354.91;5014714;28;20040;-58
2021/07/08 06:50:11;;;;;;;8.70;7.88;;;;;;;29.54;48.15;97281.41;5008120;28;20120;-58
2021/07/08 06:52:37;;;;;;;8.75;8.05;;;;;;;29.97;46.18;97372.06;5019115;28;20523;-62
2021/07/08 06:55:05;;;;;;;8.57;7.88;;;;;;;29.72;47.14;97375.50;5013210;28;20076;-63
2021/07/08 06:57:30;;;;;;;10.05;8.20;;;;;;;28.65;48.83;97318.69;5016175;28;20030;-62
2021/07/08 06:59:55;;;;;;;8.45;7.60;;;;;;;28.69;49.75;97347.78;5003788;28;20497;-63
2021/07/08 07:02:21;;;;;;;8.57;8.00;;;;;;;28.80;49.71;97381.50;5004804;28;20038;-60
2021/07/08 07:04:46;;;;;;;8.00;7.38;;;;;;;28.66;49.17;97359.41;5014030;28;20044;-61
2021/07/08 07:07:15;;;;;;;9.43;8.73;;;;;;;28.54;50.50;97334.72;5009333;28;20037;-58
2021/07/08 07:09:40;;;;;;;9.23;8.43;;;;;;;28.79;50.08;97339.97;5012813;28;20033;-65
2021/07/08 07:12:06;;;;;;;9.20;8.40;;;;;;;29.05;48.74;97326.81;5005149;28;20201;-63
2021/07/08 07:14:32;;;;;;;8.60;8.00;;;;;;;29.81;47.60;97375.44;5007966;28;20076;-57
2021/07/08 07:16:57;;;;;;;11.48;10.27;;;;;;;29.63;47.55;97371.91;5006064;28;20482;-58
2021/07/08 07:19:23;;;;;;;8.38;7.78;;;;;;;28.92;48.51;97367.00;5003081;28;20547;-62
2021/07/08 07:21:48;;;;;;;10.98;9.85;;;;;;;28.99;48.83;97345.91;5003540;28;20545;-64
2021/07/08 07:24:13;;;;;;;10.63;9.00;;;;;;;29.05;48.73;97369.63;5003348;28;20044;-63
2021/07/08 07:26:39;;;;;;;10.82;9.27;;;;;;;29.16;47.88;97318.53;5002943;28;20041;-64
2021/07/08 07:29:04;;;;;;;10.65;9.65;;;;;;;29.59;47.65;97347.19;5004253;28;20510;-60
2021/07/08 07:31:30;;;;;;;9.38;8.57;;;;;;;29.09;47.59;97373.09;5010354;28;20037;-60
2021/07/08 07:33:55;;;;;;;14.18;11.00;;;;;;;29.39;47.51;97377.66;5015750;28;20045;-59
2021/07/08 07:36:20;;;;;;;11.75;10.65;;;;;;;27.91;47.10;97122.91;5025483;28;20099;-60
2021/07/08 07:38:47;;;;;;;10.02;9.15;;;;;;;29.47;46.37;97368.22;5026833;28;20038;-63
2021/07/08 07:41:13;;;;;;;9.50;8.57;;;;;;;29.82;44.98;97379.84;5024884;28;20036;-64
2021/07/08 07:43:38;;;;;;;10.18;9.20;;;;;;;29.76;45.71;97344.69;5026071;28;20103;-63
2021/07/08 07:46:04;;;;;;;8.80;8.10;;;;;;;30.17;45.94;97377.91;5024983;28;20488;-63
2021/07/08 07:48:30;;;;;;;9.98;8.48;;;;;;;29.56;46.63;97375.91;5010010;28;20030;-63
2021/07/08 07:50:55;;;;;;;8.88;8.10;;;;;;;29.17;47.69;97366.56;5006522;28;20095;-63
2021/07/08 07:53:20;;;;;;;9.55;8.65;;;;;;;29.96;47.52;97370.50;5021067;28;20224;-60
2021/07/08 07:55:48;;;;;;;10.70;9.38;;;;;;;29.70;47.36;97380.94;5025881;28;20038;-63
2021/07/08 07:58:13;;;;;;;12.90;9.85;;;;;;;29.92;47.07;97369.94;5025335;28;20029;-59
2021/07/08 08:00:38;;;;;;;10.82;10.02;;;;;;;30.05;46.73;97327.53;5026282;28;20503;-58
2021/07/08 08:03:05;;;;;;;9.77;9.07;;;;;;;30.51;46.89;97365.00;5025881;28;20052;-58
2021/07/08 08:05:36;;;;;;;9.43;8.65;;;;;;;29.60;48.43;97330.84;5026505;28;20037;-59
2021/07/08 08:10:47;;;;;;;9.80;9.10;;;;;;;29.97;47.22;97366.34;5026054;28;20179;-59
2021/07/08 08:13:13;;;;;;;9.68;8.77;;;;;;;30.20;46.28;97367.56;5025892;28;20120;-58
2021/07/08 08:15:39;;;;;;;9.57;8.90;;;;;;;29.86;47.78;97359.66;5024386;28;20121;-64
2021/07/08 08:18:05;;;;;;;9.80;9.00;;;;;;;29.43;48.61;97373.31;5026241;28;20116;-63
2021/07/08 08:20:31;;;;;;;9.93;9.13;;;;;;;29.47;48.53;97322.53;5024599;28;20057;-65
2021/07/08 08:22:57;;;;;;;10.35;9.55;;;;;;;30.10;47.01;97375.44;5026333;28;20559;-65
2021/07/08 08:25:23;;;;;;;9.27;8.48;;;;;;;30.12;46.43;97372.88;5024465;28;20574;-66
2021/07/08 08:27:48;;;;;;;10.25;9.45;;;;;;;29.82;47.95;97371.28;5026005;28;20029;-64
2021/07/08 08:30:14;;;;;;;10.27;9.32;;;;;;;30.04;48.17;97354.56;5025750;28;20045;-65
2021/07/08 08:32:41;;;;;;;10.52;9.40;;;;;;;30.07;48.36;97367.84;5023973;28;20056;-64
2021/07/08 08:35:07;;;;;;;9.60;8.90;;;;;;;29.27;48.31;97330.97;5025833;28;20408;-64
2021/07/08 08:37:33;;;;;;;10.20;9.30;;;;;;;29.85;48.01;97381.72;5025571;28;20033;-67
2021/07/08 08:39:59;;;;;;;11.27;9.45;;;;;;;30.01;47.86;97378.41;5025944;28;20049;-65
2021/07/08 08:42:27;;;;;;;9.07;8.48;;;;;;;29.34;49.21;97372.59;5024408;28;20102;-64
2021/07/08 08:44:52;;;;;;;9.98;9.18;;;;;;;29.54;48.44;97373.56;5025487;28;20049;-63
2021/07/08 08:47:18;;;;;;;12.77;11.68;;;;;;;29.23;49.84;97358.09;5017047;28;20030;-65
2021/07/08 08:49:43;;;;;;;12.93;11.55;;;;;;;29.97;49.12;97383.50;5005617;28;20471;-65
2021/07/08 08:52:11;;;;;;;14.23;12.82;;;;;;;29.89;49.14;97388.06;5003696;28;20117;-63
2021/07/08 08:54:39;;;;;;;11.75;10.82;;;;;;;29.70;49.29;97383.78;5005810;28;20049;-63
2021/07/08 08:57:05;;;;;;;10.60;9.70;;;;;;;30.23;47.65;97378.84;5008300;28;20116;-62
2021/07/08 08:59:30;;;;;;;11.32;10.07;;;;;;;30.02;46.79;97317.09;5008450;28;20128;-63
2021/07/08 09:02:17;;;;;;;10.77;9.88;;;;;;;30.47;47.56;97379.50;5017880;28;20112;-62
2021/07/08 09:04:43;;;;;;;10.32;9.32;;;;;;;29.96;47.76;97387.66;5011609;28;20096;-65
2021/07/08 09:07:34;;;;;;;9.98;9.05;;;;;;;30.06;48.11;97376.91;5004440;28;20092;-60
2021/07/08 09:10:09;;;;;;;10.57;9.68;;;;;;;30.25;47.14;97370.56;5002224;28;20182;-59
2021/07/08 09:12:35;;;;;;;10.48;9.55;;;;;;;30.09;46.71;97373.88;5005200;28;20049;-57
2021/07/08 09:15:18;;;;;;;11.57;10.77;;;;;;;30.72;46.48;97372.34;5005489;28;20412;-62
2021/07/08 09:17:45;;;;;;;;;;;;;;;31.29;43.38;97372.69;5005464;28;20064;-60
2021/07/08 09:20:15;;;;;;;10.65;9.75;;;;;;;30.92;44.20;97344.59;5005050;28;20359;-60
2021/07/08 09:22:44;;;;;;;11.23;10.32;;;;;;;30.56;46.15;97356.50;5005568;28;20026;-63
2021/07/08 09:25:19;;;;;;;11.82;10.93;;;;;;;30.59;45.97;97366.97;5005229;28;20042;-61
2021/07/08 09:27:45;;;;;;;10.20;9.35;;;;;;;30.70;45.00;97381.44;5003107;28;20029;-60
2021/07/08 09:30:24;;;;;;;10.63;9.73;;;;;;;29.85;46.78;97347.44;5004468;28;20041;-60
2021/07/08 09:32:49;;;;;;;10.88;10.07;;;;;;;29.28;47.90;97257.53;5004566;28;20037;-60
2021/07/08 09:35:33;;;;;;;11.00;10.00;;;;;;;29.88;48.19;97377.88;5003126;28;20080;-60
2021/07/08 09:38:21;;;;;;;10.60;9.73;;;;;;;29.94;48.09;97378.78;5004778;28;20053;-61
2021/07/08 09:41:03;;;;;;;12.68;9.77;;;;;;;30.03;47.48;97387.28;5004540;28;20030;-61
2021/07/08 09:43:32;;;;;;;12.23;9.75;;;;;;;30.37;46.16;97349.44;5005085;28;20033;-61
2021/07/08 09:45:58;;;;;;;11.30;10.27;;;;;;;31.18;45.48;97381.13;5005015;28;20026;-60
2021/07/08 09:48:23;;;;;;;11.30;10.27;;;;;;;31.33;44.39;97379.78;5019052;28;20034;-61
2021/07/08 09:50:48;;;;;;;9.75;8.95;;;;;;;31.53;43.99;97373.28;5004558;28;20022;-60
2021/07/08 09:53:25;;;;;;;11.40;10.45;;;;;;;31.43;44.24;97371.84;5004135;28;20412;-59
2021/07/08 09:56:04;;;;;;;10.98;10.00;;;;;;;30.44;45.79;97383.38;5019768;28;20038;-60
2021/07/08 09:58:31;;;;;;;12.73;11.52;;;;;;;29.94;47.17;97350.19;5004245;28;20054;-60
2021/07/08 10:00:57;;;;;;;12.20;11.02;;;;;;;29.77;48.09;97386.25;5004549;28;20897;-61
2021/07/08 10:03:23;;;;;;;15.43;13.85;;;;;;;29.58;49.69;97390.50;5004376;28;20033;-61
2021/07/08 10:05:48;;;;;;;13.15;12.00;;;;;;;29.98;49.29;97390.03;5002433;28;20034;-62
2021/07/08 10:08:14;;;;;;;13.00;11.75;;;;;;;30.51;47.45;97371.50;5004389;28;20029;-62
2021/07/08 10:10:41;;;;;;;14.10;12.60;;;;;;;30.26;46.98;97325.59;5004495;28;20037;-63
2021/07/08 10:13:08;;;;;;;11.38;10.30;;;;;;;30.83;46.67;97370.50;5004286;28;20093;-62
2021/07/08 10:15:39;;;;;;;11.15;10.25;;;;;;;31.03;45.95;97366.09;5003698;28;20504;-60
2021/07/08 10:18:07;;;;;;;10.98;10.05;;;;;;;31.33;45.95;97373.31;5004121;28;20382;-62
2021/07/08 10:20:34;;;;;;;11.50;10.60;;;;;;;30.93;44.68;97340.47;5002318;28;20291;-61
2021/07/08 10:23:01;;;;;;;10.55;9.82;;;;;;;31.15;45.89;97379.25;5004639;28;20223;-59
2021/07/08 10:25:27;;;;;;;14.00;12.63;;;;;;;31.08;44.53;97374.75;5003958;28;20187;-65
2021/07/08 10:27:54;;;;;;;10.20;9.35;;;;;;;30.93;44.17;97363.38;5002648;28;20497;-59
2021/07/08 10:30:24;;;;;;;11.45;10.40;;;;;;;30.72;45.30;97355.97;5004365;28;20076;-62
2021/07/08 10:32:58;;;;;;;13.18;10.18;;;;;;;30.81;45.62;97360.81;5002472;28;20410;-62
2021/07/08 10:35:46;;;;;;;11.65;10.75;;;;;;;30.84;45.62;97363.47;5004062;28;20049;-61
2021/07/08 10:38:40;;;;;;;10.90;9.80;;;;;;;30.32;46.16;97363.66;5003853;28;20038;-64
2021/07/08 10:41:11;;;;;;;10.60;9.57;;;;;;;30.68;45.44;97363.97;5003920;28;20108;-60
2021/07/08 10:43:39;;;;;;;11.27;10.15;;;;;;;31.28;44.88;97349.00;5003517;28;20046;-62
2021/07/08 10:46:06;;;;;;;10.68;9.77;;;;;;;30.87;45.87;97351.03;5004021;28;20120;-61
2021/07/08 10:48:50;;;;;;;11.40;10.60;;;;;;;30.38;45.24;97264.47;5003692;28;20025;-62
2021/07/08 10:51:15;;;;;;;;;;;;;;;31.08;44.61;97351.06;5002421;28;20045;-59
2021/07/08 10:53:42;;;;;;;10.75;9.95;;;;;;;30.72;44.96;97358.84;5001835;28;20459;-64
2021/07/08 10:56:12;;;;;;;11.52;10.07;;;;;;;30.29;45.51;97353.97;5003897;28;20054;-61
2021/07/08 10:58:42;;;;;;;12.05;11.15;;;;;;;30.11;46.52;97348.44;5003429;28;20041;-61
2021/07/08 11:01:36;;;;;;;11.23;10.48;;;;;;;30.40;46.50;97359.88;5002052;28;20088;-61
2021/07/08 11:04:03;;;;;;;11.60;10.60;;;;;;;30.20;46.42;97311.19;5003543;28;20497;-64
2021/07/08 11:06:46;;;;;;;11.23;10.25;;;;;;;30.88;44.63;97358.34;5007618;28;20539;-62
2021/07/08 11:09:11;;;;;;;11.00;10.13;;;;;;;31.36;42.83;97360.84;5008054;28;20030;-63
2021/07/08 11:11:45;;;;;;;11.82;10.73;;;;;;;31.48;43.78;97356.81;5008150;28;20095;-64
2021/07/08 11:14:12;;;;;;;10.77;9.88;;;;;;;31.25;43.87;97354.94;5007440;28;20042;-64
2021/07/08 11:16:50;;;;;;;10.32;9.60;;;;;;;30.92;44.70;97343.81;5007178;28;20049;-62
2021/07/08 11:19:19;;;;;;;11.50;10.60;;;;;;;31.31;43.86;97352.97;5006715;28;20050;-66
2021/07/08 11:22:10;;;;;;;11.18;10.18;;;;;;;30.06;43.05;97116.84;5007777;28;20040;-65
2021/07/08 11:24:39;;;;;;;11.38;10.48;;;;;;;31.26;44.22;97350.78;5007688;28;20130;-64